Time;durP1;ratioP1;P1;durP2;ratioP2;P2;SDS_P1;SDS_P2;PMS_P1;PMS_P2;Temp;Humidity;BMP_temperature;BMP_pressure;BME280_temperature;BME280_humidity;BME280_pressure;Samples;Min_cycle;Max_cycle;Signal;HPM_P1;HPM_P2
2021/07/17 00:01:07;;;;;;;35.55;12.10;;;;;;;;;;5053760;28;20028;-90
2021/07/17 00:03:33;;;;;;;43.05;13.57;;;;;;;;;;5054990;28;20013;-91
2021/07/17 00:05:58;;;;;;;46.95;13.75;;;;;;;;;;5087330;28;20028;-90
2021/07/17 00:08:23;;;;;;;39.00;12.80;;;;;;;;;;5054594;28;20025;-89
2021/07/17 00:10:49;;;;;;;35.30;13.23;;;;;;;;;;5087417;28;20476;-90
2021/07/17 00:13:15;;;;;;;41.13;13.63;;;;;;;;;;5053789;28;20020;-90
2021/07/17 00:15:41;;;;;;;40.92;12.45;;;;;;;;;;5053525;28;20083;-90
2021/07/17 00:18:06;;;;;;;41.67;12.82;;;;;;;;;;5053273;28;20021;-90
2021/07/17 00:20:32;;;;;;;43.88;13.23;;;;;;;;;;5086521;28;20538;-91
2021/07/17 00:22:57;;;;;;;39.20;13.82;;;;;;;;;;5087210;28;20013;-90
2021/07/17 00:25:22;;;;;;;43.13;13.45;;;;;;;;;;5053477;28;20040;-90
2021/07/17 00:27:48;;;;;;;38.95;13.18;;;;;;;;;;5053762;28;20381;-90
2021/07/17 00:30:14;;;;;;;43.28;13.90;;;;;;;;;;5053138;28;20029;-90
2021/07/17 00:32:39;;;;;;;40.10;13.65;;;;;;;;;;5052840;28;20017;-90
2021/07/17 00:35:06;;;;;;;32.17;13.13;;;;;;;;;;5053194;28;20044;-90
2021/07/17 00:37:31;;;;;;;42.95;12.75;;;;;;;;;;5053227;28;20103;-90
2021/07/17 00:39:56;;;;;;;41.60;14.38;;;;;;;;;;5086650;28;20106;-90
2021/07/17 00:42:22;;;;;;;37.67;13.15;;;;;;;;;;5053057;28;20568;-90
2021/07/17 00:44:47;;;;;;;30.63;12.23;;;;;;;;;;5053925;28;20423;-91
2021/07/17 00:47:14;;;;;;;54.20;13.50;;;;;;;;;;5054057;28;20025;-90
2021/07/17 00:49:39;;;;;;;42.88;13.15;;;;;;;;;;5086348;28;20021;-91
2021/07/17 00:52:04;;;;;;;46.78;14.20;;;;;;;;;;5052948;28;20028;-91
2021/07/17 00:54:31;;;;;;;40.58;13.15;;;;;;;;;;5054305;28;20025;-91
2021/07/17 00:56:57;;;;;;;32.58;12.23;;;;;;;;;;5054007;28;20025;-90
2021/07/17 00:59:24;;;;;;;34.53;12.27;;;;;;;;;;5086394;28;20024;-91
2021/07/17 01:01:51;;;;;;;41.40;13.43;;;;;;;;;;5052311;28;20518;-90
2021/07/17 01:04:16;;;;;;;42.22;12.40;;;;;;;;;;5040159;28;20017;-91
2021/07/17 01:06:42;;;;;;;47.22;12.20;;;;;;;;;;5052470;28;20456;-90
2021/07/17 01:09:07;;;;;;;37.33;12.85;;;;;;;;;;5086505;28;20024;-90
2021/07/17 01:11:32;;;;;;;34.10;11.32;;;;;;;;;;5052919;28;20102;-91
2021/07/17 01:13:58;;;;;;;37.45;13.05;;;;;;;;;;5086379;28;20408;-90
2021/07/17 01:16:23;;;;;;;38.28;11.35;;;;;;;;;;5051860;28;20073;-91
2021/07/17 01:18:48;;;;;;;39.28;12.57;;;;;;;;;;5051243;28;20457;-90
2021/07/17 01:21:15;;;;;;;41.35;12.30;;;;;;;;;;5050641;28;20564;-90
2021/07/17 01:23:40;;;;;;;48.13;12.88;;;;;;;;;;5084953;28;20040;-90
2021/07/17 01:26:05;;;;;;;38.78;12.27;;;;;;;;;;5084631;28;20061;-90
2021/07/17 01:28:30;;;;;;;43.22;13.60;;;;;;;;;;5051285;28;20033;-90
2021/07/17 01:30:55;;;;;;;51.60;13.38;;;;;;;;;;5084758;28;20024;-90
2021/07/17 01:33:21;;;;;;;41.28;12.35;;;;;;;;;;5051108;28;20051;-90
2021/07/17 01:35:48;;;;;;;42.10;13.02;;;;;;;;;;5052234;28;20044;-91
2021/07/17 01:38:13;;;;;;;39.63;12.77;;;;;;;;;;5047893;28;20025;-90
2021/07/17 01:40:39;;;;;;;39.60;11.68;;;;;;;;;;5050767;28;20013;-90
2021/07/17 01:43:04;;;;;;;28.48;11.65;;;;;;;;;;5051011;28;20021;-90
2021/07/17 01:45:31;;;;;;;44.03;12.48;;;;;;;;;;5050414;28;20078;-90
2021/07/17 01:47:56;;;;;;;43.80;12.00;;;;;;;;;;5051124;28;20032;-90
2021/07/17 01:50:24;;;;;;;42.25;13.93;;;;;;;;;;5052937;28;20021;-90
2021/07/17 01:52:50;;;;;;;38.53;12.35;;;;;;;;;;5085637;28;20013;-90
2021/07/17 01:55:15;;;;;;;47.33;12.45;;;;;;;;;;5052789;28;20107;-90
2021/07/17 01:57:42;;;;;;;32.17;11.95;;;;;;;;;;5053473;28;20142;-90
2021/07/17 02:00:08;;;;;;;44.35;11.95;;;;;;;;;;5051891;28;20021;-90
2021/07/17 02:02:33;;;;;;;33.70;10.07;;;;;;;;;;5085447;28;20599;-90
2021/07/17 02:05:01;;;;;;;35.42;13.43;;;;;;;;;;5085012;28;20025;-91
2021/07/17 02:07:26;;;;;;;32.67;11.88;;;;;;;;;;5051144;28;20465;-90
2021/07/17 02:09:51;;;;;;;42.20;11.80;;;;;;;;;;5052190;28;20059;-91
2021/07/17 02:12:16;;;;;;;41.85;12.20;;;;;;;;;;5053127;28;20029;-89
2021/07/17 02:14:42;;;;;;;37.60;12.88;;;;;;;;;;5051941;28;20384;-90
2021/07/17 02:17:07;;;;;;;43.33;12.25;;;;;;;;;;5051376;28;20108;-90
2021/07/17 02:19:32;;;;;;;42.72;11.95;;;;;;;;;;5051733;28;20090;-90
2021/07/17 02:21:58;;;;;;;36.35;12.00;;;;;;;;;;5051736;28;20017;-90
2021/07/17 02:24:23;;;;;;;45.05;12.77;;;;;;;;;;5053073;28;20021;-90
2021/07/17 02:26:48;;;;;;;50.63;12.40;;;;;;;;;;5084920;28;20017;-90
2021/07/17 02:29:14;;;;;;;34.60;11.80;;;;;;;;;;5052187;28;20203;-90
2021/07/17 02:31:41;;;;;;;43.85;13.02;;;;;;;;;;5053172;28;20021;-90
2021/07/17 02:34:07;;;;;;;47.20;12.55;;;;;;;;;;5052987;28;20124;-90
2021/07/17 02:36:32;;;;;;;44.80;12.32;;;;;;;;;;5051772;28;20111;-90
2021/07/17 02:38:57;;;;;;;39.70;12.02;;;;;;;;;;5052943;28;20075;-90
2021/07/17 02:41:23;;;;;;;43.50;12.30;;;;;;;;;;5051682;28;20017;-90
2021/07/17 02:43:48;;;;;;;38.03;13.23;;;;;;;;;;5052781;28;20017;-90
2021/07/17 02:46:13;;;;;;;40.67;13.07;;;;;;;;;;5051471;28;20076;-90
2021/07/17 02:48:39;;;;;;;45.38;13.20;;;;;;;;;;5051766;28;20009;-90
2021/07/17 02:51:04;;;;;;;40.38;13.50;;;;;;;;;;5054088;28;20430;-90
2021/07/17 02:53:29;;;;;;;45.03;13.63;;;;;;;;;;5088667;28;20021;-90
2021/07/17 02:55:54;;;;;;;42.08;13.05;;;;;;;;;;5055334;28;20467;-90
2021/07/17 02:58:19;;;;;;;43.70;12.30;;;;;;;;;;5088704;28;20025;-90
2021/07/17 03:00:47;;;;;;;45.83;13.00;;;;;;;;;;5055077;28;20423;-90
2021/07/17 03:03:12;;;;;;;39.00;12.98;;;;;;;;;;5055970;28;20101;-91
2021/07/17 03:05:37;;;;;;;40.85;12.50;;;;;;;;;;5074340;28;20045;-90
2021/07/17 03:08:05;;;;;;;39.05;12.95;;;;;;;;;;5056166;28;20071;-90
2021/07/17 03:10:30;;;;;;;34.63;13.13;;;;;;;;;;5054912;28;20021;-90
2021/07/17 03:12:55;;;;;;;40.20;13.30;;;;;;;;;;5054841;28;20439;-90
2021/07/17 03:15:20;;;;;;;43.22;13.55;;;;;;;;;;5054819;28;20498;-90
2021/07/17 03:17:45;;;;;;;39.10;13.07;;;;;;;;;;5054650;28;20039;-90
2021/07/17 03:20:11;;;;;;;39.15;13.80;;;;;;;;;;5055266;28;20059;-90
2021/07/17 03:22:36;;;;;;;39.95;12.93;;;;;;;;;;5055353;28;20024;-90
2021/07/17 03:25:01;;;;;;;30.60;11.60;;;;;;;;;;5055806;28;20100;-90
2021/07/17 03:27:27;;;;;;;32.75;13.98;;;;;;;;;;5055512;28;20056;-90
2021/07/17 03:29:52;;;;;;;47.58;14.93;;;;;;;;;;5055371;28;20021;-90
2021/07/17 03:32:21;;;;;;;38.28;13.45;;;;;;;;;;5054264;28;20425;-90
2021/07/17 03:34:46;;;;;;;28.30;11.50;;;;;;;;;;5053841;28;20114;-90
2021/07/17 03:37:11;;;;;;;34.28;12.70;;;;;;;;;;5055508;28;20060;-90
2021/07/17 03:39:36;;;;;;;48.85;12.38;;;;;;;;;;5055278;28;20116;-90
2021/07/17 03:42:03;;;;;;;30.02;11.27;;;;;;;;;;5055361;28;20100;-90
2021/07/17 03:44:29;;;;;;;29.48;10.80;;;;;;;;;;5054511;28;20017;-90
2021/07/17 03:46:54;;;;;;;46.40;13.07;;;;;;;;;;5054005;28;20056;-90
2021/07/17 03:49:20;;;;;;;37.33;11.73;;;;;;;;;;5087620;28;20048;-90
2021/07/17 03:51:45;;;;;;;38.70;12.35;;;;;;;;;;5053457;28;20020;-90
2021/07/17 03:54:10;;;;;;;41.08;12.35;;;;;;;;;;5053513;28;20025;-90
2021/07/17 03:56:35;;;;;;;32.10;11.73;;;;;;;;;;5053673;28;20043;-90
2021/07/17 03:59:01;;;;;;;35.92;12.32;;;;;;;;;;5055091;28;20017;-90
2021/07/17 04:01:26;;;;;;;42.05;11.77;;;;;;;;;;5054051;28;20016;-90
2021/07/17 04:03:51;;;;;;;39.70;13.35;;;;;;;;;;5087293;28;20361;-90
2021/07/17 04:06:16;;;;;;;32.13;11.65;;;;;;;;;;5054844;28;20009;-90
2021/07/17 04:08:42;;;;;;;32.75;11.68;;;;;;;;;;5053577;28;20051;-90
2021/07/17 04:11:07;;;;;;;34.20;11.40;;;;;;;;;;5053391;28;20035;-90
2021/07/17 04:13:33;;;;;;;36.28;11.30;;;;;;;;;;5080080;28;20469;-90
2021/07/17 04:15:58;;;;;;;36.85;11.27;;;;;;;;;;5049898;28;20029;-90
2021/07/17 04:18:23;;;;;;;43.63;11.48;;;;;;;;;;5087065;28;20031;-90
2021/07/17 04:20:48;;;;;;;45.65;13.00;;;;;;;;;;5053257;28;20016;-90
2021/07/17 04:23:13;;;;;;;27.17;10.38;;;;;;;;;;5053210;28;20438;-90
2021/07/17 04:25:39;;;;;;;38.67;11.88;;;;;;;;;;5054597;28;20346;-90
2021/07/17 04:28:04;;;;;;;44.50;12.80;;;;;;;;;;5054428;28;20013;-90
2021/07/17 04:30:29;;;;;;;39.47;11.52;;;;;;;;;;5087143;28;20021;-90
2021/07/17 04:32:54;;;;;;;30.15;11.77;;;;;;;;;;5052643;28;20495;-90
2021/07/17 04:35:20;;;;;;;40.85;13.00;;;;;;;;;;5086357;28;20372;-90
2021/07/17 04:37:45;;;;;;;40.10;12.77;;;;;;;;;;5054127;28;20464;-90
2021/07/17 04:40:11;;;;;;;31.75;10.75;;;;;;;;;;5052891;28;20274;-90
2021/07/17 04:42:36;;;;;;;32.72;11.23;;;;;;;;;;5054300;28;20024;-90
2021/07/17 04:45:02;;;;;;;31.33;12.77;;;;;;;;;;5052904;28;20361;-90
2021/07/17 04:47:27;;;;;;;41.55;12.95;;;;;;;;;;5053008;28;20032;-90
2021/07/17 04:49:52;;;;;;;42.75;10.73;;;;;;;;;;5052849;28;20025;-90
2021/07/17 04:52:17;;;;;;;43.03;11.93;;;;;;;;;;5052666;28;20013;-90
2021/07/17 04:54:42;;;;;;;31.02;10.80;;;;;;;;;;5052644;28;20063;-91
2021/07/17 04:57:08;;;;;;;32.03;12.32;;;;;;;;;;5053819;28;20468;-90
2021/07/17 04:59:33;;;;;;;32.17;11.50;;;;;;;;;;5054081;28;20695;-90
2021/07/17 05:01:58;;;;;;;30.55;11.68;;;;;;;;;;5085340;28;20017;-90
2021/07/17 05:04:23;;;;;;;35.47;12.48;;;;;;;;;;5054143;28;20033;-90
2021/07/17 05:06:48;;;;;;;39.55;11.60;;;;;;;;;;5052285;28;20021;-90
2021/07/17 05:09:14;;;;;;;35.03;11.38;;;;;;;;;;5053816;28;20031;-90
2021/07/17 05:11:39;;;;;;;38.47;11.55;;;;;;;;;;5085958;28;20464;-90
2021/07/17 05:14:04;;;;;;;28.35;10.90;;;;;;;;;;5053162;28;20024;-90
2021/07/17 05:16:29;;;;;;;33.50;11.02;;;;;;;;;;5086148;28;20024;-90
2021/07/17 05:18:55;;;;;;;33.92;10.68;;;;;;;;;;5085973;28;20104;-90
2021/07/17 05:21:20;;;;;;;26.10;11.57;;;;;;;;;;5052660;28;20051;-90
2021/07/17 05:23:45;;;;;;;39.10;12.48;;;;;;;;;;5052477;28;20449;-90
2021/07/17 05:26:11;;;;;;;37.65;12.40;;;;;;;;;;5084161;28;20070;-90
2021/07/17 05:28:36;;;;;;;30.42;10.60;;;;;;;;;;5084799;28;20020;-91
2021/07/17 05:31:01;;;;;;;38.22;11.30;;;;;;;;;;5084490;28;20023;-90
2021/07/17 05:33:26;;;;;;;32.72;12.60;;;;;;;;;;5085102;28;20534;-90
2021/07/17 05:35:52;;;;;;;37.88;11.88;;;;;;;;;;5084219;28;20021;-90
2021/07/17 05:38:17;;;;;;;32.35;11.45;;;;;;;;;;5051327;28;20024;-90
2021/07/17 05:40:42;;;;;;;33.45;10.85;;;;;;;;;;5050953;28;20029;-89
2021/07/17 05:43:07;;;;;;;30.25;10.80;;;;;;;;;;5053410;28;20393;-90
2021/07/17 05:45:33;;;;;;;37.15;10.88;;;;;;;;;;5052056;28;20055;-91
2021/07/17 05:47:58;;;;;;;45.25;13.00;;;;;;;;;;5085694;28;20028;-90
2021/07/17 05:50:23;;;;;;;38.72;11.18;;;;;;;;;;5052631;28;20115;-90
2021/07/17 05:52:48;;;;;;;31.13;10.65;;;;;;;;;;5085768;28;20242;-91
2021/07/17 05:55:14;;;;;;;43.20;11.85;;;;;;;;;;5053105;28;20021;-90
2021/07/17 05:57:39;;;;;;;43.00;11.90;;;;;;;;;;5051982;28;20112;-90
2021/07/17 06:00:08;;;;;;;44.50;12.77;;;;;;;;;;5051549;28;20115;-90
2021/07/17 06:02:33;;;;;;;34.78;11.93;;;;;;;;;;5051827;28;20157;-90
2021/07/17 06:04:58;;;;;;;46.60;11.75;;;;;;;;;;5053176;28;20017;-90
2021/07/17 06:07:23;;;;;;;38.17;11.48;;;;;;;;;;5052906;28;20017;-90
2021/07/17 06:09:48;;;;;;;29.90;11.50;;;;;;;;;;5085514;28;20020;-90
2021/07/17 06:12:14;;;;;;;40.25;11.85;;;;;;;;;;5052259;28;20036;-90
2021/07/17 06:14:39;;;;;;;44.55;11.50;;;;;;;;;;5052712;28;20066;-90
2021/07/17 06:17:06;;;;;;;30.85;11.75;;;;;;;;;;5085320;28;20387;-90
2021/07/17 06:19:31;;;;;;;32.47;10.38;;;;;;;;;;5051936;28;20059;-91
2021/07/17 06:21:56;;;;;;;30.30;10.07;;;;;;;;;;5085451;28;20017;-91
2021/07/17 06:24:22;;;;;;;21.35;9.32;;;;;;;;;;5051903;28;20020;-90
2021/07/17 06:26:47;;;;;;;26.00;9.98;;;;;;;;;;5055401;28;20063;-90
2021/07/17 06:29:12;;;;;;;34.10;10.45;;;;;;;;;;5055832;28;20468;-90
2021/07/17 06:31:40;;;;;;;29.00;10.63;;;;;;;;;;5056250;28;20056;-90
2021/07/17 06:34:06;;;;;;;31.33;10.32;;;;;;;;;;5055586;28;20032;-90
2021/07/17 06:36:31;;;;;;;26.20;10.77;;;;;;;;;;5055394;28;20020;-90
2021/07/17 06:38:56;;;;;;;23.95;9.88;;;;;;;;;;5056570;28;20052;-90
2021/07/17 06:41:22;;;;;;;30.00;10.35;;;;;;;;;;5056435;28;20029;-91
2021/07/17 06:43:47;;;;;;;28.13;9.10;;;;;;;;;;5089184;28;20078;-91
2021/07/17 06:46:12;;;;;;;24.23;9.85;;;;;;;;;;5055088;28;20055;-90
2021/07/17 06:48:37;;;;;;;35.20;11.85;;;;;;;;;;5054893;28;20063;-90
2021/07/17 06:51:03;;;;;;;30.92;9.82;;;;;;;;;;5088597;28;20032;-90
2021/07/17 06:53:29;;;;;;;33.15;10.52;;;;;;;;;;5056496;28;20045;-90
2021/07/17 06:55:54;;;;;;;26.38;9.70;;;;;;;;;;5055024;28;20542;-91
2021/07/17 06:58:20;;;;;;;27.10;9.88;;;;;;;;;;5055102;28;20465;-90
2021/07/17 07:00:45;;;;;;;23.67;9.50;;;;;;;;;;5056036;28;20017;-90
2021/07/17 07:03:10;;;;;;;34.25;11.13;;;;;;;;;;5054811;28;20029;-90
2021/07/17 07:05:35;;;;;;;36.03;10.45;;;;;;;;;;5054647;28;20075;-90
2021/07/17 07:08:00;;;;;;;31.15;10.25;;;;;;;;;;5088356;28;20029;-90
2021/07/17 07:10:26;;;;;;;29.77;9.65;;;;;;;;;;5054040;28;20116;-89
2021/07/17 07:12:51;;;;;;;40.15;10.90;;;;;;;;;;5054218;28;20021;-90
2021/07/17 07:15:16;;;;;;;36.45;11.32;;;;;;;;;;5054601;28;20503;-90
2021/07/17 07:17:42;;;;;;;27.15;10.52;;;;;;;;;;5087942;28;20021;-90
2021/07/17 07:20:09;;;;;;;29.15;10.55;;;;;;;;;;5046990;28;20036;-90
2021/07/17 07:22:35;;;;;;;29.33;11.23;;;;;;;;;;5053160;28;20036;-90
2021/07/17 07:25:00;;;;;;;27.60;10.07;;;;;;;;;;5055398;28;20013;-90
2021/07/17 07:27:25;;;;;;;35.38;11.07;;;;;;;;;;5054224;28;20021;-90
2021/07/17 07:29:50;;;;;;;33.88;11.13;;;;;;;;;;5053592;28;20032;-89
2021/07/17 07:32:15;;;;;;;30.42;10.55;;;;;;;;;;5051403;28;20079;-90
2021/07/17 07:34:41;;;;;;;30.63;10.23;;;;;;;;;;5049758;28;20036;-90
2021/07/17 07:37:06;;;;;;;31.15;9.73;;;;;;;;;;5081897;28;20080;-90
2021/07/17 07:39:32;;;;;;;32.70;11.57;;;;;;;;;;5052778;28;20029;-89
2021/07/17 07:41:57;;;;;;;34.58;10.75;;;;;;;;;;5048559;28;20523;-90
2021/07/17 07:44:22;;;;;;;32.95;11.38;;;;;;;;;;5040963;28;20018;-90
2021/07/17 07:46:49;;;;;;;29.60;9.60;;;;;;;;;;5050210;28;20049;-88
2021/07/17 07:49:14;;;;;;;26.60;9.95;;;;;;;;;;5053909;28;20071;-90
2021/07/17 07:51:40;;;;;;;33.63;10.77;;;;;;;;;;5054874;28;20059;-90
2021/07/17 07:54:05;;;;;;;36.10;11.07;;;;;;;;;;5053677;28;20486;-90
2021/07/17 07:56:30;;;;;;;28.15;10.40;;;;;;;;;;5054215;28;20103;-90
2021/07/17 07:58:55;;;;;;;35.65;10.07;;;;;;;;;;5052945;28;20021;-90
2021/07/17 08:01:20;;;;;;;32.55;11.23;;;;;;;;;;5041492;28;20017;-91
2021/07/17 08:03:46;;;;;;;32.28;9.57;;;;;;;;;;5051473;28;20043;-90
2021/07/17 08:06:11;;;;;;;33.83;10.23;;;;;;;;;;5053434;28;20016;-90
2021/07/17 08:08:37;;;;;;;30.08;9.98;;;;;;;;;;5086811;28;20021;-89
2021/07/17 08:11:02;;;;;;;27.92;9.80;;;;;;;;;;5053116;28;20025;-90
2021/07/17 08:13:27;;;;;;;38.75;10.98;;;;;;;;;;5053478;28;20427;-89
2021/07/17 08:15:53;;;;;;;27.80;9.60;;;;;;;;;;5052780;28;20043;-89
2021/07/17 08:18:19;;;;;;;40.00;12.65;;;;;;;;;;5050093;28;20115;-91
2021/07/17 08:20:44;;;;;;;31.23;9.40;;;;;;;;;;5047983;28;20021;-91
2021/07/17 08:23:10;;;;;;;32.30;9.98;;;;;;;;;;5049027;28;20024;-90
2021/07/17 08:25:35;;;;;;;38.97;10.15;;;;;;;;;;5042163;28;20033;-89
2021/07/17 08:28:00;;;;;;;36.17;10.00;;;;;;;;;;5050231;28;20021;-90
2021/07/17 08:30:25;;;;;;;27.05;8.98;;;;;;;;;;5054295;28;20045;-91
2021/07/17 08:32:51;;;;;;;32.28;9.68;;;;;;;;;;5053889;28;20048;-91
2021/07/17 08:35:16;;;;;;;39.38;10.98;;;;;;;;;;5053960;28;20040;-91
2021/07/17 08:37:42;;;;;;;27.42;9.30;;;;;;;;;;5052911;28;20017;-91
2021/07/17 08:40:07;;;;;;;32.13;8.85;;;;;;;;;;5044014;28;20020;-90
2021/07/17 08:42:38;;;;;;;25.67;9.82;;;;;;;;;;5080834;28;20469;-91
2021/07/17 08:45:05;;;;;;;28.67;8.80;;;;;;;;;;5076587;28;20075;-91
2021/07/17 08:47:32;;;;;;;34.92;9.95;;;;;;;;;;5045316;28;20492;-90
2021/07/17 08:49:59;;;;;;;28.40;9.07;;;;;;;;;;5047672;28;20404;-91
2021/07/17 08:52:26;;;;;;;31.67;8.55;;;;;;;;;;5052369;28;20024;-91
2021/07/17 08:54:52;;;;;;;31.33;8.90;;;;;;;;;;5045978;28;20429;-90
2021/07/17 08:57:17;;;;;;;34.40;9.77;;;;;;;;;;5052918;28;20060;-91
2021/07/17 08:59:42;;;;;;;31.13;9.00;;;;;;;;;;5056645;28;20107;-91
2021/07/17 09:02:08;;;;;;;29.25;9.20;;;;;;;;;;5048986;28;20052;-90
2021/07/17 09:04:33;;;;;;;29.00;9.10;;;;;;;;;;5052410;28;20107;-91
2021/07/17 09:06:58;;;;;;;25.40;8.77;;;;;;;;;;5053098;28;20021;-91
2021/07/17 09:09:28;;;;;;;20.17;7.40;;;;;;;;;;5053827;28;20488;-91
2021/07/17 09:11:53;;;;;;;24.05;8.57;;;;;;;;;;5052781;28;20017;-91
2021/07/17 09:14:35;;;;;;;30.45;7.80;;;;;;;;;;5052561;28;20108;-91
2021/07/17 09:17:01;;;;;;;28.08;7.68;;;;;;;;;;5049453;28;20497;-91
2021/07/17 09:19:26;;;;;;;22.35;7.65;;;;;;;;;;5049635;28;20028;-90
2021/07/17 09:21:54;;;;;;;20.08;7.20;;;;;;;;;;5052536;28;20419;-91
2021/07/17 09:24:19;;;;;;;22.35;7.18;;;;;;;;;;5052629;28;20116;-92
2021/07/17 09:26:58;;;;;;;22.73;7.78;;;;;;;;;;5052296;28;20056;-91
2021/07/17 09:29:32;;;;;;;24.85;7.18;;;;;;;;;;5053819;28;20024;-91
2021/07/17 09:31:57;;;;;;;21.25;7.20;;;;;;;;;;5052521;28;20482;-90
2021/07/17 09:34:23;;;;;;;29.50;6.40;;;;;;;;;;5052512;28;20067;-91
2021/07/17 09:36:49;;;;;;;17.25;6.45;;;;;;;;;;5053526;28;20377;-91
2021/07/17 09:39:18;;;;;;;20.08;6.55;;;;;;;;;;5052437;28;20025;-91
2021/07/17 09:41:51;;;;;;;21.73;6.38;;;;;;;;;;5053322;28;20021;-91
2021/07/17 09:44:20;;;;;;;31.38;7.35;;;;;;;;;;5053689;28;20095;-91
2021/07/17 09:46:45;;;;;;;22.95;6.75;;;;;;;;;;5051658;28;20028;-91
2021/07/17 09:49:16;;;;;;;21.50;7.50;;;;;;;;;;5052458;28;20017;-91
2021/07/17 09:51:41;;;;;;;22.48;6.40;;;;;;;;;;5052521;28;20067;-91
2021/07/17 09:54:06;;;;;;;15.32;5.75;;;;;;;;;;5052348;28;20029;-91
2021/07/17 09:56:36;;;;;;;20.20;6.55;;;;;;;;;;5052066;28;20067;-91
2021/07/17 09:59:04;;;;;;;25.13;6.20;;;;;;;;;;5053418;28;20539;-90
2021/07/17 10:01:47;;;;;;;24.40;5.70;;;;;;;;;;5055847;28;20048;-91
2021/07/17 10:04:14;;;;;;;25.10;5.20;;;;;;;;;;5045246;28;20720;-91
2021/07/17 10:06:41;;;;;;;20.10;5.60;;;;;;;;;;5056199;28;20017;-91
2021/07/17 10:09:07;;;;;;;17.33;5.85;;;;;;;;;;5056099;28;20441;-91
2021/07/17 10:11:33;;;;;;;20.65;6.68;;;;;;;;;;5056183;28;20111;-92
2021/07/17 10:14:13;;;;;;;16.08;6.38;;;;;;;;;;5056207;28;20045;-91
2021/07/17 10:16:39;;;;;;;19.05;5.93;;;;;;;;;;5052845;28;20104;-91
2021/07/17 10:19:05;;;;;;;16.60;5.18;;;;;;;;;;5050093;28;20029;-91
2021/07/17 10:21:30;;;;;;;19.63;5.22;;;;;;;;;;5055730;28;20024;-91
2021/07/17 10:23:55;;;;;;;21.13;5.05;;;;;;;;;;5055909;28;20071;-91
2021/07/17 10:26:21;;;;;;;20.13;4.75;;;;;;;;;;5055578;28;20051;-91
2021/07/17 10:28:46;;;;;;;18.20;5.07;;;;;;;;;;5056052;28;20009;-92
2021/07/17 10:31:11;;;;;;;23.08;5.57;;;;;;;;;;5056912;28;20025;-92
2021/07/17 10:33:37;;;;;;;18.08;5.75;;;;;;;;;;5056946;28;20013;-91
2021/07/17 10:36:05;;;;;;;16.95;5.68;;;;;;;;;;5055705;28;20024;-91
2021/07/17 10:38:32;;;;;;;15.63;5.20;;;;;;;;;;5041771;28;20013;-91
2021/07/17 10:40:58;;;;;;;20.27;5.20;;;;;;;;;;5056139;28;20468;-92
2021/07/17 10:43:23;;;;;;;20.15;5.57;;;;;;;;;;5056537;28;20017;-91
2021/07/17 10:45:50;;;;;;;18.77;5.32;;;;;;;;;;5056141;28;20069;-91
2021/07/17 10:48:27;;;;;;;20.33;5.13;;;;;;;;;;5055331;28;20020;-91
2021/07/17 10:50:52;;;;;;;28.60;5.75;;;;;;;;;;5052818;28;20022;-91
2021/07/17 10:53:36;;;;;;;16.42;5.28;;;;;;;;;;5051042;28;20104;-91
2021/07/17 10:56:20;;;;;;;22.25;4.93;;;;;;;;;;5054963;28;20082;-91
2021/07/17 10:58:46;;;;;;;19.05;5.30;;;;;;;;;;5055138;28;20047;-91
2021/07/17 11:01:11;;;;;;;11.15;4.30;;;;;;;;;;5054997;28;20048;-91
2021/07/17 11:03:36;;;;;;;17.75;4.05;;;;;;;;;;5055071;28;20024;-91
2021/07/17 11:06:21;;;;;;;31.77;6.53;;;;;;;;;;5054688;28;20021;-91
2021/07/17 11:08:47;;;;;;;15.90;4.38;;;;;;;;;;5041005;28;20108;-91
2021/07/17 11:11:27;;;;;;;21.90;5.57;;;;;;;;;;5053901;28;20067;-91
2021/07/17 11:13:56;;;;;;;13.23;4.50;;;;;;;;;;5055914;28;20120;-91
2021/07/17 11:16:41;;;;;;;12.50;4.65;;;;;;;;;;5055676;28;20021;-91
2021/07/17 11:19:22;;;;;;;13.68;5.18;;;;;;;;;;5050823;28;20068;-91
2021/07/17 11:21:47;;;;;;;24.73;5.18;;;;;;;;;;5054429;28;20472;-91
2021/07/17 11:24:13;;;;;;;13.68;4.60;;;;;;;;;;5054556;28;20017;-90
2021/07/17 11:26:38;;;;;;;20.27;5.10;;;;;;;;;;5045616;28;20059;-91
2021/07/17 11:29:05;;;;;;;20.15;5.53;;;;;;;;;;5054613;28;20021;-91
2021/07/17 11:31:34;;;;;;;16.50;4.75;;;;;;;;;;5055142;28;20016;-91
2021/07/17 11:34:14;;;;;;;16.38;3.72;;;;;;;;;;5055574;28;20020;-91
2021/07/17 11:36:39;;;;;;;16.02;4.57;;;;;;;;;;5052482;28;20013;-92
2021/07/17 11:39:05;;;;;;;15.73;4.18;;;;;;;;;;5055713;28;20539;-90
2021/07/17 11:41:31;;;;;;;13.95;3.65;;;;;;;;;;5054259;28;20060;-91
2021/07/17 11:43:56;;;;;;;17.42;4.18;;;;;;;;;;5053988;28;20432;-91
2021/07/17 11:46:21;;;;;;;15.60;4.95;;;;;;;;;;5053773;28;20028;-91
2021/07/17 11:49:06;;;;;;;13.13;4.43;;;;;;;;;;5048884;28;20013;-92
2021/07/17 11:51:31;;;;;;;13.88;3.53;;;;;;;;;;5049218;28;20020;-91
2021/07/17 11:54:00;;;;;;;11.30;3.33;;;;;;;;;;5054241;28;20493;-91
2021/07/17 11:56:28;;;;;;;10.32;3.90;;;;;;;;;;5054195;28;20029;-92
2021/07/17 11:59:12;;;;;;;13.18;4.10;;;;;;;;;;5053893;28;20013;-91
2021/07/17 12:01:38;;;;;;;13.70;3.83;;;;;;;;;;5053712;28;20017;-91
2021/07/17 12:04:03;;;;;;;13.27;3.60;;;;;;;;;;5054138;28;20116;-91
2021/07/17 12:06:28;;;;;;;16.80;4.68;;;;;;;;;;5054287;28;20035;-91
2021/07/17 12:08:53;;;;;;;16.48;5.03;;;;;;;;;;5054992;28;20021;-92
2021/07/17 12:11:19;;;;;;;10.35;3.38;;;;;;;;;;5073339;28;20017;-91
2021/07/17 12:13:45;;;;;;;13.50;2.88;;;;;;;;;;5055130;28;20091;-91
2021/07/17 12:16:20;;;;;;;11.13;3.30;;;;;;;;;;5053943;28;20016;-92
2021/07/17 12:18:52;;;;;;;11.52;3.63;;;;;;;;;;5053715;28;20024;-91
2021/07/17 12:21:18;;;;;;;13.75;3.95;;;;;;;;;;5052807;28;20017;-92
2021/07/17 12:23:43;;;;;;;11.65;3.65;;;;;;;;;;5052766;28;20472;-92
2021/07/17 12:26:08;;;;;;;16.33;3.65;;;;;;;;;;5054534;28;20059;-91
2021/07/17 12:28:36;;;;;;;10.93;3.58;;;;;;;;;;5054001;28;20020;-92
2021/07/17 12:31:07;;;;;;;11.75;3.60;;;;;;;;;;5054455;28;20017;-91
2021/07/17 12:33:42;;;;;;;16.83;4.05;;;;;;;;;;5053536;28;20464;-92
2021/07/17 12:36:08;;;;;;;9.90;3.60;;;;;;;;;;5053204;28;20025;-91
2021/07/17 12:38:34;;;;;;;10.50;3.20;;;;;;;;;;5053430;28;20150;-92
2021/07/17 12:41:01;;;;;;;15.45;3.75;;;;;;;;;;5052867;28;20386;-92
2021/07/17 12:43:28;;;;;;;12.93;3.40;;;;;;;;;;5054326;28;20353;-90
2021/07/17 12:45:57;;;;;;;9.30;2.95;;;;;;;;;;5054123;28;20024;-91
2021/07/17 12:48:22;;;;;;;10.90;2.85;;;;;;;;;;5054309;28;20013;-92
2021/07/17 12:50:48;;;;;;;11.30;2.80;;;;;;;;;;5053240;28;20420;-91
2021/07/17 12:53:13;;;;;;;11.52;3.40;;;;;;;;;;5053068;28;20021;-90
2021/07/17 12:55:43;;;;;;;10.40;2.92;;;;;;;;;;5053273;28;20035;-92
2021/07/17 12:58:12;;;;;;;5.82;2.50;;;;;;;;;;5053166;28;20067;-91
2021/07/17 13:00:38;;;;;;;7.55;2.40;;;;;;;;;;5038899;28;20025;-91
2021/07/17 13:03:03;;;;;;;17.83;2.90;;;;;;;;;;5053017;28;20112;-92
2021/07/17 13:05:41;;;;;;;10.23;2.50;;;;;;;;;;5053159;28;20043;-92
2021/07/17 13:08:06;;;;;;;9.35;2.55;;;;;;;;;;5052877;28;20020;-92
2021/07/17 13:10:35;;;;;;;12.60;2.92;;;;;;;;;;5052737;28;20025;-91
2021/07/17 13:13:07;;;;;;;10.45;2.67;;;;;;;;;;5052784;28;20378;-92
2021/07/17 13:15:32;;;;;;;;;;;;;;;;;;5053226;28;20564;-92
2021/07/17 13:17:57;;;;;;;15.68;2.97;;;;;;;;;;5052182;28;20399;-92
2021/07/17 13:20:23;;;;;;;11.63;2.85;;;;;;;;;;5052814;28;20048;-92
2021/07/17 13:22:48;;;;;;;12.38;2.92;;;;;;;;;;5052496;28;20021;-92
2021/07/17 13:25:17;;;;;;;9.73;2.83;;;;;;;;;;5052578;28;20025;-92
2021/07/17 13:27:43;;;;;;;8.63;2.10;;;;;;;;;;5052662;28;20462;-91
2021/07/17 13:30:08;;;;;;;15.98;3.80;;;;;;;;;;5052583;28;20079;-91
2021/07/17 13:32:35;;;;;;;9.98;2.58;;;;;;;;;;5053852;28;20083;-92
2021/07/17 13:35:33;;;;;;;6.95;2.08;;;;;;;;;;5053311;28;20024;-92
2021/07/17 13:38:00;;;;;;;4.82;2.28;;;;;;;;;;5038894;28;20041;-92
2021/07/17 13:40:26;;;;;;;7.60;2.63;;;;;;;;;;5052571;28;20044;-92
2021/07/17 13:42:51;;;;;;;5.45;2.10;;;;;;;;;;5052601;28;20028;-92
2021/07/17 13:45:16;;;;;;;7.82;2.00;;;;;;;;;;5052093;28;20379;-92
2021/07/17 13:47:46;;;;;;;12.73;2.63;;;;;;;;;;5052600;28;20013;-92
2021/07/17 13:50:31;;;;;;;11.27;2.08;;;;;;;;;;5051461;28;20020;-92
2021/07/17 13:52:56;;;;;;;9.88;2.75;;;;;;;;;;5047360;28;20041;-92
2021/07/17 13:55:26;;;;;;;11.15;2.42;;;;;;;;;;5051316;28;20083;-92
2021/07/17 13:58:01;;;;;;;3.63;1.60;;;;;;;;;;5052168;28;20025;-92
2021/07/17 14:00:37;;;;;;;9.38;1.75;;;;;;;;;;5052844;28;20021;-92
2021/07/17 14:03:02;;;;;;;9.98;2.08;;;;;;;;;;5053467;28;20024;-92
2021/07/17 14:05:27;;;;;;;6.28;1.77;;;;;;;;;;5051453;28;20013;-92
2021/07/17 14:07:52;;;;;;;4.40;1.45;;;;;;;;;;5052980;28;20100;-92
2021/07/17 14:10:18;;;;;;;11.93;1.70;;;;;;;;;;5044429;28;20029;-92
2021/07/17 14:12:43;;;;;;;3.58;1.63;;;;;;;;;;5049488;28;20024;-92
2021/07/17 14:15:08;;;;;;;5.07;1.50;;;;;;;;;;5052048;28;20028;-92
2021/07/17 14:17:34;;;;;;;4.32;1.60;;;;;;;;;;5052825;28;20079;-92
2021/07/17 14:19:59;;;;;;;6.70;1.92;;;;;;;;;;5051995;28;20029;-92